sensor_id;sensor_type;location;lat;lon;timestamp;temperature;humidity
16198;DHT22;8206;51.440;6.914;2023-06-19T00:02:23;23.00;99.90
16198;DHT22;8206;51.440;6.914;2023-06-19T00:04:51;23.00;99.90
16198;DHT22;8206;51.440;6.914;2023-06-19T00:07:18;22.90;99.90
16198;DHT22;8206;51.440;6.914;2023-06-19T00:09:47;22.90;99.90
16198;DHT22;8206;51.440;6.914;2023-06-19T00:12:14;22.90;99.90
16198;DHT22;8206;51.440;6.914;2023-06-19T00:14:40;22.80;99.90
16198;DHT22;8206;51.440;6.914;2023-06-19T00:17:08;22.70;99.90
16198;DHT22;8206;51.440;6.914;2023-06-19T00:19:34;22.70;99.90
16198;DHT22;8206;51.440;6.914;2023-06-19T00:22:04;22.50;99.90
16198;DHT22;8206;51.440;6.914;2023-06-19T00:24:31;22.40;99.90
16198;DHT22;8206;51.440;6.914;2023-06-19T00:26:57;22.40;99.90
16198;DHT22;8206;51.440;6.914;2023-06-19T00:29:27;22.40;99.90
16198;DHT22;8206;51.440;6.914;2023-06-19T00:31:54;22.30;99.90
16198;DHT22;8206;51.440;6.914;2023-06-19T00:34:21;22.20;99.90
16198;DHT22;8206;51.440;6.914;2023-06-19T00:36:49;22.10;99.90
16198;DHT22;8206;51.440;6.914;2023-06-19T00:39:17;22.10;99.90
16198;DHT22;8206;51.440;6.914;2023-06-19T00:41:44;22.00;99.90
16198;DHT22;8206;51.440;6.914;2023-06-19T00:44:13;22.00;99.90
16198;DHT22;8206;51.440;6.914;2023-06-19T00:46:40;21.90;99.90
16198;DHT22;8206;51.440;6.914;2023-06-19T00:49:07;21.90;99.90
16198;DHT22;8206;51.440;6.914;2023-06-19T00:51:34;21.90;99.90
16198;DHT22;8206;51.440;6.914;2023-06-19T00:54:01;21.80;99.90
16198;DHT22;8206;51.440;6.914;2023-06-19T00:56:30;21.80;99.90
16198;DHT22;8206;51.440;6.914;2023-06-19T00:58:57;21.90;99.90
16198;DHT22;8206;51.440;6.914;2023-06-19T01:01:24;21.90;99.90
16198;DHT22;8206;51.440;6.914;2023-06-19T01:03:51;21.90;99.90
16198;DHT22;8206;51.440;6.914;2023-06-19T01:06:21;21.80;99.90
16198;DHT22;8206;51.440;6.914;2023-06-19T01:08:53;21.80;99.90
16198;DHT22;8206;51.440;6.914;2023-06-19T01:11:25;21.70;99.90
16198;DHT22;8206;51.440;6.914;2023-06-19T01:14:00;21.70;99.90
16198;DHT22;8206;51.440;6.914;2023-06-19T01:16:28;21.70;99.90
16198;DHT22;8206;51.440;6.914;2023-06-19T01:18:55;21.70;99.90
16198;DHT22;8206;51.440;6.914;2023-06-19T01:21:22;21.60;99.90
16198;DHT22;8206;51.440;6.914;2023-06-19T01:23:50;21.50;99.90
16198;DHT22;8206;51.440;6.914;2023-06-19T01:26:17;21.50;99.90
16198;DHT22;8206;51.440;6.914;2023-06-19T01:28:45;21.50;99.90
16198;DHT22;8206;51.440;6.914;2023-06-19T01:31:17;21.50;99.90
16198;DHT22;8206;51.440;6.914;2023-06-19T01:33:45;21.40;99.90
16198;DHT22;8206;51.440;6.914;2023-06-19T01:36:14;21.30;99.90
16198;DHT22;8206;51.440;6.914;2023-06-19T01:38:42;21.30;99.90
16198;DHT22;8206;51.440;6.914;2023-06-19T01:41:12;21.20;99.90
16198;DHT22;8206;51.440;6.914;2023-06-19T01:43:40;21.20;99.90
16198;DHT22;8206;51.440;6.914;2023-06-19T01:46:08;21.20;99.90
16198;DHT22;8206;51.440;6.914;2023-06-19T01:48:35;21.10;99.90
16198;DHT22;8206;51.440;6.914;2023-06-19T01:51:02;21.00;99.90
16198;DHT22;8206;51.440;6.914;2023-06-19T01:53:30;21.00;99.90
16198;DHT22;8206;51.440;6.914;2023-06-19T01:55:57;20.90;99.90
16198;DHT22;8206;51.440;6.914;2023-06-19T01:58:25;20.80;99.90
16198;DHT22;8206;51.440;6.914;2023-06-19T02:00:52;20.80;99.90
16198;DHT22;8206;51.440;6.914;2023-06-19T02:03:18;20.80;99.90
16198;DHT22;8206;51.440;6.914;2023-06-19T02:05:45;20.70;99.90
16198;DHT22;8206;51.440;6.914;2023-06-19T02:08:12;20.70;99.90
16198;DHT22;8206;51.440;6.914;2023-06-19T02:10:38;20.70;99.90
16198;DHT22;8206;51.440;6.914;2023-06-19T02:13:05;20.60;99.90
16198;DHT22;8206;51.440;6.914;2023-06-19T02:15:33;20.60;99.90
16198;DHT22;8206;51.440;6.914;2023-06-19T02:18:00;20.50;99.90
16198;DHT22;8206;51.440;6.914;2023-06-19T02:20:27;20.40;99.90
16198;DHT22;8206;51.440;6.914;2023-06-19T02:22:53;20.50;99.90
16198;DHT22;8206;51.440;6.914;2023-06-19T02:25:20;20.50;99.90
16198;DHT22;8206;51.440;6.914;2023-06-19T02:27:46;20.50;99.90
16198;DHT22;8206;51.440;6.914;2023-06-19T02:30:13;20.60;99.90
16198;DHT22;8206;51.440;6.914;2023-06-19T02:32:41;20.60;99.90
16198;DHT22;8206;51.440;6.914;2023-06-19T02:35:09;20.60;99.90
16198;DHT22;8206;51.440;6.914;2023-06-19T02:37:37;20.60;99.90
16198;DHT22;8206;51.440;6.914;2023-06-19T02:40:04;20.60;99.90
16198;DHT22;8206;51.440;6.914;2023-06-19T02:42:31;20.70;99.90
16198;DHT22;8206;51.440;6.914;2023-06-19T02:44:58;20.80;99.90
16198;DHT22;8206;51.440;6.914;2023-06-19T02:47:28;20.80;99.90
16198;DHT22;8206;51.440;6.914;2023-06-19T02:49:57;20.90;99.90
16198;DHT22;8206;51.440;6.914;2023-06-19T02:52:24;20.90;99.90
16198;DHT22;8206;51.440;6.914;2023-06-19T02:54:50;21.00;99.90
16198;DHT22;8206;51.440;6.914;2023-06-19T02:57:17;21.00;99.90
16198;DHT22;8206;51.440;6.914;2023-06-19T02:59:44;21.00;99.90
16198;DHT22;8206;51.440;6.914;2023-06-19T03:02:11;21.00;99.90
16198;DHT22;8206;51.440;6.914;2023-06-19T03:04:38;21.10;99.90
16198;DHT22;8206;51.440;6.914;2023-06-19T03:07:07;21.10;99.90
16198;DHT22;8206;51.440;6.914;2023-06-19T03:09:34;21.20;99.90
16198;DHT22;8206;51.440;6.914;2023-06-19T03:12:00;21.10;99.90
16198;DHT22;8206;51.440;6.914;2023-06-19T03:14:27;21.10;99.90
16198;DHT22;8206;51.440;6.914;2023-06-19T03:16:54;21.10;99.90
16198;DHT22;8206;51.440;6.914;2023-06-19T03:19:21;21.20;99.90
16198;DHT22;8206;51.440;6.914;2023-06-19T03:21:47;21.20;99.90
16198;DHT22;8206;51.440;6.914;2023-06-19T03:24:15;21.20;99.90
16198;DHT22;8206;51.440;6.914;2023-06-19T03:26:42;21.20;99.90
16198;DHT22;8206;51.440;6.914;2023-06-19T03:29:08;21.20;99.90
16198;DHT22;8206;51.440;6.914;2023-06-19T03:31:35;21.30;99.90
16198;DHT22;8206;51.440;6.914;2023-06-19T03:34:02;21.30;99.90
16198;DHT22;8206;51.440;6.914;2023-06-19T03:36:28;21.20;99.90
16198;DHT22;8206;51.440;6.914;2023-06-19T03:38:55;21.20;99.90
16198;DHT22;8206;51.440;6.914;2023-06-19T03:41:23;21.10;99.90
16198;DHT22;8206;51.440;6.914;2023-06-19T03:43:50;21.10;99.90
16198;DHT22;8206;51.440;6.914;2023-06-19T03:46:16;21.10;99.90
16198;DHT22;8206;51.440;6.914;2023-06-19T03:48:43;21.10;99.90
16198;DHT22;8206;51.440;6.914;2023-06-19T03:51:10;21.10;99.90
16198;DHT22;8206;51.440;6.914;2023-06-19T03:53:36;21.10;99.90
16198;DHT22;8206;51.440;6.914;2023-06-19T03:56:03;21.20;99.90
16198;DHT22;8206;51.440;6.914;2023-06-19T03:58:31;21.20;99.90
16198;DHT22;8206;51.440;6.914;2023-06-19T04:00:58;21.30;99.90
16198;DHT22;8206;51.440;6.914;2023-06-19T04:03:25;21.30;99.90
16198;DHT22;8206;51.440;6.914;2023-06-19T04:05:51;21.30;99.90
16198;DHT22;8206;51.440;6.914;2023-06-19T04:08:18;21.30;99.90
16198;DHT22;8206;51.440;6.914;2023-06-19T04:10:44;21.30;99.90
16198;DHT22;8206;51.440;6.914;2023-06-19T04:13:12;21.30;99.90
16198;DHT22;8206;51.440;6.914;2023-06-19T04:15:40;21.40;99.90
16198;DHT22;8206;51.440;6.914;2023-06-19T04:18:09;21.50;99.90
16198;DHT22;8206;51.440;6.914;2023-06-19T04:20:36;21.60;99.90
16198;DHT22;8206;51.440;6.914;2023-06-19T04:23:02;21.80;99.90
16198;DHT22;8206;51.440;6.914;2023-06-19T04:25:29;22.00;99.90
16198;DHT22;8206;51.440;6.914;2023-06-19T04:27:56;22.30;99.90
16198;DHT22;8206;51.440;6.914;2023-06-19T04:30:22;22.50;99.90
16198;DHT22;8206;51.440;6.914;2023-06-19T04:32:50;22.60;99.90
16198;DHT22;8206;51.440;6.914;2023-06-19T04:35:18;22.80;99.90
16198;DHT22;8206;51.440;6.914;2023-06-19T04:37:45;22.80;99.90
16198;DHT22;8206;51.440;6.914;2023-06-19T04:40:14;23.00;99.90
16198;DHT22;8206;51.440;6.914;2023-06-19T04:42:41;23.00;99.90
16198;DHT22;8206;51.440;6.914;2023-06-19T04:45:08;23.20;99.90
16198;DHT22;8206;51.440;6.914;2023-06-19T04:47:35;23.00;99.90
16198;DHT22;8206;51.440;6.914;2023-06-19T04:50:03;23.00;99.90
16198;DHT22;8206;51.440;6.914;2023-06-19T04:52:30;23.10;99.90
16198;DHT22;8206;51.440;6.914;2023-06-19T04:54:58;23.50;99.90
16198;DHT22;8206;51.440;6.914;2023-06-19T04:57:25;24.00;99.90
16198;DHT22;8206;51.440;6.914;2023-06-19T04:59:52;24.70;99.90
16198;DHT22;8206;51.440;6.914;2023-06-19T05:02:18;25.30;99.90
16198;DHT22;8206;51.440;6.914;2023-06-19T05:04:45;25.70;99.90
16198;DHT22;8206;51.440;6.914;2023-06-19T05:07:13;26.00;99.90
16198;DHT22;8206;51.440;6.914;2023-06-19T05:09:40;26.10;99.90
16198;DHT22;8206;51.440;6.914;2023-06-19T05:12:08;26.30;99.90
16198;DHT22;8206;51.440;6.914;2023-06-19T05:14:35;26.80;99.90
16198;DHT22;8206;51.440;6.914;2023-06-19T05:17:01;27.00;99.90
16198;DHT22;8206;51.440;6.914;2023-06-19T05:19:28;26.90;99.90
16198;DHT22;8206;51.440;6.914;2023-06-19T05:21:55;27.00;99.90
16198;DHT22;8206;51.440;6.914;2023-06-19T05:24:23;27.50;99.90
16198;DHT22;8206;51.440;6.914;2023-06-19T05:26:50;26.70;99.90
16198;DHT22;8206;51.440;6.914;2023-06-19T05:29:16;25.70;99.90
16198;DHT22;8206;51.440;6.914;2023-06-19T05:31:43;24.70;99.90
16198;DHT22;8206;51.440;6.914;2023-06-19T05:34:10;24.10;99.90
16198;DHT22;8206;51.440;6.914;2023-06-19T05:36:36;23.80;99.90
16198;DHT22;8206;51.440;6.914;2023-06-19T05:39:03;23.80;99.90
16198;DHT22;8206;51.440;6.914;2023-06-19T05:41:31;23.80;99.90
16198;DHT22;8206;51.440;6.914;2023-06-19T05:43:58;23.70;99.90
16198;DHT22;8206;51.440;6.914;2023-06-19T05:46:25;23.60;99.90
16198;DHT22;8206;51.440;6.914;2023-06-19T05:48:52;23.70;99.90
16198;DHT22;8206;51.440;6.914;2023-06-19T05:51:20;23.40;99.90
16198;DHT22;8206;51.440;6.914;2023-06-19T05:53:46;23.20;99.90
16198;DHT22;8206;51.440;6.914;2023-06-19T05:56:14;23.10;99.90
16198;DHT22;8206;51.440;6.914;2023-06-19T05:58:43;23.00;99.90
16198;DHT22;8206;51.440;6.914;2023-06-19T06:01:10;22.80;99.90
16198;DHT22;8206;51.440;6.914;2023-06-19T06:03:36;22.80;99.90
16198;DHT22;8206;51.440;6.914;2023-06-19T06:06:03;22.90;99.90
16198;DHT22;8206;51.440;6.914;2023-06-19T06:08:30;23.00;99.90
16198;DHT22;8206;51.440;6.914;2023-06-19T06:10:57;23.20;99.90
16198;DHT22;8206;51.440;6.914;2023-06-19T06:13:24;23.40;99.90
16198;DHT22;8206;51.440;6.914;2023-06-19T06:15:52;23.30;99.90
16198;DHT22;8206;51.440;6.914;2023-06-19T06:18:19;23.10;99.90
16198;DHT22;8206;51.440;6.914;2023-06-19T06:20:46;23.00;99.90
16198;DHT22;8206;51.440;6.914;2023-06-19T06:23:12;22.80;99.90
16198;DHT22;8206;51.440;6.914;2023-06-19T06:25:39;22.60;99.90
16198;DHT22;8206;51.440;6.914;2023-06-19T06:28:06;22.50;99.90
16198;DHT22;8206;51.440;6.914;2023-06-19T06:30:33;22.20;99.90
16198;DHT22;8206;51.440;6.914;2023-06-19T06:33:01;22.00;99.90
16198;DHT22;8206;51.440;6.914;2023-06-19T06:35:27;21.90;99.90
16198;DHT22;8206;51.440;6.914;2023-06-19T06:37:54;21.90;99.90
16198;DHT22;8206;51.440;6.914;2023-06-19T06:40:21;21.80;99.90
16198;DHT22;8206;51.440;6.914;2023-06-19T06:42:47;21.80;99.90
16198;DHT22;8206;51.440;6.914;2023-06-19T06:45:14;21.80;99.90
16198;DHT22;8206;51.440;6.914;2023-06-19T06:47:41;21.90;99.90
16198;DHT22;8206;51.440;6.914;2023-06-19T06:50:10;22.00;99.90
16198;DHT22;8206;51.440;6.914;2023-06-19T06:52:36;22.10;99.90
16198;DHT22;8206;51.440;6.914;2023-06-19T06:55:04;22.10;99.90
16198;DHT22;8206;51.440;6.914;2023-06-19T06:57:31;22.10;99.90
16198;DHT22;8206;51.440;6.914;2023-06-19T06:59:57;22.10;99.90
16198;DHT22;8206;51.440;6.914;2023-06-19T07:02:24;22.00;99.90
16198;DHT22;8206;51.440;6.914;2023-06-19T07:04:51;21.90;99.90
16198;DHT22;8206;51.440;6.914;2023-06-19T07:07:19;21.90;99.90
16198;DHT22;8206;51.440;6.914;2023-06-19T07:09:46;21.90;99.90
16198;DHT22;8206;51.440;6.914;2023-06-19T07:12:13;21.90;99.90
16198;DHT22;8206;51.440;6.914;2023-06-19T07:14:39;21.90;99.90
16198;DHT22;8206;51.440;6.914;2023-06-19T07:17:06;21.90;99.90
16198;DHT22;8206;51.440;6.914;2023-06-19T07:19:33;21.80;99.90
16198;DHT22;8206;51.440;6.914;2023-06-19T07:22:00;21.80;99.90
16198;DHT22;8206;51.440;6.914;2023-06-19T07:24:28;22.00;99.90
16198;DHT22;8206;51.440;6.914;2023-06-19T07:26:55;22.10;99.90
16198;DHT22;8206;51.440;6.914;2023-06-19T07:29:22;22.00;99.90
16198;DHT22;8206;51.440;6.914;2023-06-19T07:31:49;22.10;99.90
16198;DHT22;8206;51.440;6.914;2023-06-19T07:34:15;22.20;99.90
16198;DHT22;8206;51.440;6.914;2023-06-19T07:36:42;22.40;99.90
16198;DHT22;8206;51.440;6.914;2023-06-19T07:39:09;22.30;99.90
16198;DHT22;8206;51.440;6.914;2023-06-19T07:41:37;22.30;99.90
16198;DHT22;8206;51.440;6.914;2023-06-19T07:44:04;22.30;99.90
16198;DHT22;8206;51.440;6.914;2023-06-19T07:46:31;22.40;99.90
16198;DHT22;8206;51.440;6.914;2023-06-19T07:48:57;22.50;99.90
16198;DHT22;8206;51.440;6.914;2023-06-19T07:51:24;22.80;99.90
16198;DHT22;8206;51.440;6.914;2023-06-19T07:53:51;22.90;99.90
16198;DHT22;8206;51.440;6.914;2023-06-19T07:56:17;23.00;99.90
16198;DHT22;8206;51.440;6.914;2023-06-19T07:58:46;23.10;99.90
16198;DHT22;8206;51.440;6.914;2023-06-19T08:01:13;23.10;99.90
16198;DHT22;8206;51.440;6.914;2023-06-19T08:03:41;22.90;99.90
16198;DHT22;8206;51.440;6.914;2023-06-19T08:06:07;22.90;99.90
16198;DHT22;8206;51.440;6.914;2023-06-19T08:08:34;22.90;99.90
16198;DHT22;8206;51.440;6.914;2023-06-19T08:11:01;22.80;99.90
16198;DHT22;8206;51.440;6.914;2023-06-19T08:13:27;22.70;99.90
16198;DHT22;8206;51.440;6.914;2023-06-19T08:15:55;22.60;99.90
16198;DHT22;8206;51.440;6.914;2023-06-19T08:18:22;22.90;99.90
16198;DHT22;8206;51.440;6.914;2023-06-19T08:20:49;23.20;99.90
16198;DHT22;8206;51.440;6.914;2023-06-19T08:23:15;23.50;99.90
16198;DHT22;8206;51.440;6.914;2023-06-19T08:25:42;23.90;99.90
16198;DHT22;8206;51.440;6.914;2023-06-19T08:28:09;24.30;99.90
16198;DHT22;8206;51.440;6.914;2023-06-19T08:30:35;24.90;99.90
16198;DHT22;8206;51.440;6.914;2023-06-19T08:33:03;24.90;99.90
16198;DHT22;8206;51.440;6.914;2023-06-19T08:35:30;25.10;99.90
16198;DHT22;8206;51.440;6.914;2023-06-19T08:37:57;25.60;99.90
16198;DHT22;8206;51.440;6.914;2023-06-19T08:40:23;25.80;99.90
16198;DHT22;8206;51.440;6.914;2023-06-19T08:42:50;25.90;99.90
16198;DHT22;8206;51.440;6.914;2023-06-19T08:45:17;25.90;99.90
16198;DHT22;8206;51.440;6.914;2023-06-19T08:47:46;26.00;99.90
16198;DHT22;8206;51.440;6.914;2023-06-19T08:50:15;26.20;99.90
16198;DHT22;8206;51.440;6.914;2023-06-19T08:52:41;26.70;99.90
16198;DHT22;8206;51.440;6.914;2023-06-19T08:55:08;27.40;99.90
16198;DHT22;8206;51.440;6.914;2023-06-19T08:57:37;27.60;99.90
16198;DHT22;8206;51.440;6.914;2023-06-19T09:00:05;27.50;99.90
16198;DHT22;8206;51.440;6.914;2023-06-19T09:02:40;27.00;99.90
16198;DHT22;8206;51.440;6.914;2023-06-19T09:05:16;26.60;99.90
16198;DHT22;8206;51.440;6.914;2023-06-19T09:07:44;26.50;99.90
16198;DHT22;8206;51.440;6.914;2023-06-19T09:10:13;26.60;99.90
16198;DHT22;8206;51.440;6.914;2023-06-19T09:12:42;26.60;99.90
16198;DHT22;8206;51.440;6.914;2023-06-19T09:15:12;26.80;99.90
16198;DHT22;8206;51.440;6.914;2023-06-19T09:17:39;27.00;99.90
16198;DHT22;8206;51.440;6.914;2023-06-19T09:20:06;27.00;99.90
16198;DHT22;8206;51.440;6.914;2023-06-19T09:22:35;27.10;99.90
16198;DHT22;8206;51.440;6.914;2023-06-19T09:25:02;27.10;99.90
16198;DHT22;8206;51.440;6.914;2023-06-19T09:27:32;27.20;99.90
16198;DHT22;8206;51.440;6.914;2023-06-19T09:29:59;27.40;99.90
16198;DHT22;8206;51.440;6.914;2023-06-19T09:32:28;27.50;99.90
16198;DHT22;8206;51.440;6.914;2023-06-19T09:34:55;27.70;99.90
16198;DHT22;8206;51.440;6.914;2023-06-19T09:37:25;27.80;99.90
16198;DHT22;8206;51.440;6.914;2023-06-19T09:39:55;27.80;99.90
16198;DHT22;8206;51.440;6.914;2023-06-19T09:42:27;27.80;99.90
16198;DHT22;8206;51.440;6.914;2023-06-19T09:44:58;27.70;99.90
16198;DHT22;8206;51.440;6.914;2023-06-19T09:47:25;27.40;99.90
16198;DHT22;8206;51.440;6.914;2023-06-19T09:49:56;27.70;99.90
16198;DHT22;8206;51.440;6.914;2023-06-19T09:52:24;28.00;99.90
16198;DHT22;8206;51.440;6.914;2023-06-19T09:54:51;28.10;99.90
16198;DHT22;8206;51.440;6.914;2023-06-19T09:57:20;27.80;99.90
16198;DHT22;8206;51.440;6.914;2023-06-19T09:59:48;27.30;99.90
16198;DHT22;8206;51.440;6.914;2023-06-19T10:02:16;27.00;99.90
16198;DHT22;8206;51.440;6.914;2023-06-19T10:04:44;26.90;99.90
16198;DHT22;8206;51.440;6.914;2023-06-19T10:07:16;27.10;99.90
16198;DHT22;8206;51.440;6.914;2023-06-19T10:09:55;27.00;99.90
16198;DHT22;8206;51.440;6.914;2023-06-19T10:12:34;27.10;99.90
16198;DHT22;8206;51.440;6.914;2023-06-19T10:15:08;27.30;99.90
16198;DHT22;8206;51.440;6.914;2023-06-19T10:17:35;27.40;99.90
16198;DHT22;8206;51.440;6.914;2023-06-19T10:20:03;27.50;99.90
16198;DHT22;8206;51.440;6.914;2023-06-19T10:22:36;27.40;99.90
16198;DHT22;8206;51.440;6.914;2023-06-19T10:25:04;27.90;99.90
16198;DHT22;8206;51.440;6.914;2023-06-19T10:27:34;28.00;99.90
16198;DHT22;8206;51.440;6.914;2023-06-19T10:30:04;28.10;99.90
16198;DHT22;8206;51.440;6.914;2023-06-19T10:32:31;27.80;99.90
16198;DHT22;8206;51.440;6.914;2023-06-19T10:34:57;27.70;99.90
16198;DHT22;8206;51.440;6.914;2023-06-19T10:37:32;27.60;99.90
16198;DHT22;8206;51.440;6.914;2023-06-19T10:39:59;27.50;99.90
16198;DHT22;8206;51.440;6.914;2023-06-19T10:42:26;27.30;99.90
16198;DHT22;8206;51.440;6.914;2023-06-19T10:45:02;27.20;99.90
16198;DHT22;8206;51.440;6.914;2023-06-19T10:47:29;27.00;99.90
16198;DHT22;8206;51.440;6.914;2023-06-19T10:49:57;26.90;99.90
16198;DHT22;8206;51.440;6.914;2023-06-19T10:52:23;26.70;99.90
16198;DHT22;8206;51.440;6.914;2023-06-19T10:54:53;26.70;99.90
16198;DHT22;8206;51.440;6.914;2023-06-19T10:57:27;26.70;99.90
16198;DHT22;8206;51.440;6.914;2023-06-19T10:59:53;26.80;99.90
16198;DHT22;8206;51.440;6.914;2023-06-19T11:02:22;26.90;99.90
16198;DHT22;8206;51.440;6.914;2023-06-19T11:04:52;26.80;99.90
16198;DHT22;8206;51.440;6.914;2023-06-19T11:07:19;26.90;99.90
16198;DHT22;8206;51.440;6.914;2023-06-19T11:09:45;27.00;99.90
16198;DHT22;8206;51.440;6.914;2023-06-19T11:12:19;27.10;99.90
16198;DHT22;8206;51.440;6.914;2023-06-19T11:14:47;27.30;99.90
16198;DHT22;8206;51.440;6.914;2023-06-19T11:17:14;27.70;99.90
16198;DHT22;8206;51.440;6.914;2023-06-19T11:19:42;28.10;99.90
16198;DHT22;8206;51.440;6.914;2023-06-19T11:22:10;28.20;99.90
16198;DHT22;8206;51.440;6.914;2023-06-19T11:24:36;28.20;99.90
16198;DHT22;8206;51.440;6.914;2023-06-19T11:27:03;28.20;99.90
16198;DHT22;8206;51.440;6.914;2023-06-19T11:29:31;28.50;99.90
16198;DHT22;8206;51.440;6.914;2023-06-19T11:32:06;28.60;99.90
16198;DHT22;8206;51.440;6.914;2023-06-19T11:34:35;28.60;99.90
16198;DHT22;8206;51.440;6.914;2023-06-19T11:37:11;28.50;99.90
16198;DHT22;8206;51.440;6.914;2023-06-19T11:39:38;28.50;99.90
16198;DHT22;8206;51.440;6.914;2023-06-19T11:42:06;28.50;99.90
16198;DHT22;8206;51.440;6.914;2023-06-19T11:44:33;28.40;99.90
16198;DHT22;8206;51.440;6.914;2023-06-19T11:47:00;28.40;99.90
16198;DHT22;8206;51.440;6.914;2023-06-19T11:49:28;28.30;99.90
16198;DHT22;8206;51.440;6.914;2023-06-19T11:52:00;28.00;99.90
16198;DHT22;8206;51.440;6.914;2023-06-19T11:54:28;28.40;99.90
16198;DHT22;8206;51.440;6.914;2023-06-19T11:56:55;28.90;99.90
16198;DHT22;8206;51.440;6.914;2023-06-19T11:59:22;28.90;99.90
16198;DHT22;8206;51.440;6.914;2023-06-19T12:01:49;29.30;99.90
16198;DHT22;8206;51.440;6.914;2023-06-19T12:04:15;29.40;99.90
16198;DHT22;8206;51.440;6.914;2023-06-19T12:06:42;29.70;99.90
16198;DHT22;8206;51.440;6.914;2023-06-19T12:09:09;29.70;99.90
16198;DHT22;8206;51.440;6.914;2023-06-19T12:11:38;29.50;99.90
16198;DHT22;8206;51.440;6.914;2023-06-19T12:14:05;29.40;99.90
16198;DHT22;8206;51.440;6.914;2023-06-19T12:16:31;29.40;99.90
16198;DHT22;8206;51.440;6.914;2023-06-19T12:18:58;29.30;99.90
16198;DHT22;8206;51.440;6.914;2023-06-19T12:21:25;29.30;99.90
16198;DHT22;8206;51.440;6.914;2023-06-19T12:23:52;29.20;99.90
16198;DHT22;8206;51.440;6.914;2023-06-19T12:26:19;29.20;99.90
16198;DHT22;8206;51.440;6.914;2023-06-19T12:28:47;29.30;99.90
16198;DHT22;8206;51.440;6.914;2023-06-19T12:31:14;29.10;99.90
16198;DHT22;8206;51.440;6.914;2023-06-19T12:33:40;29.20;99.90
16198;DHT22;8206;51.440;6.914;2023-06-19T12:36:10;29.20;99.90
16198;DHT22;8206;51.440;6.914;2023-06-19T12:38:39;29.20;99.90
16198;DHT22;8206;51.440;6.914;2023-06-19T12:41:05;29.10;99.90
16198;DHT22;8206;51.440;6.914;2023-06-19T12:43:32;28.80;99.90
16198;DHT22;8206;51.440;6.914;2023-06-19T12:46:00;28.90;99.90
16198;DHT22;8206;51.440;6.914;2023-06-19T12:48:28;29.00;99.90
16198;DHT22;8206;51.440;6.914;2023-06-19T12:50:54;29.20;99.90
16198;DHT22;8206;51.440;6.914;2023-06-19T12:53:21;29.40;99.90
16198;DHT22;8206;51.440;6.914;2023-06-19T12:55:51;29.60;99.90
16198;DHT22;8206;51.440;6.914;2023-06-19T12:58:18;29.70;99.90
16198;DHT22;8206;51.440;6.914;2023-06-19T13:00:45;29.80;99.90
16198;DHT22;8206;51.440;6.914;2023-06-19T13:03:13;29.90;99.90
16198;DHT22;8206;51.440;6.914;2023-06-19T13:05:40;30.10;99.90
16198;DHT22;8206;51.440;6.914;2023-06-19T13:08:07;30.30;99.90
16198;DHT22;8206;51.440;6.914;2023-06-19T13:10:33;30.30;99.90
16198;DHT22;8206;51.440;6.914;2023-06-19T13:13:00;30.10;99.90
16198;DHT22;8206;51.440;6.914;2023-06-19T13:15:27;29.90;99.90
16198;DHT22;8206;51.440;6.914;2023-06-19T13:17:54;29.70;99.90
16198;DHT22;8206;51.440;6.914;2023-06-19T13:20:22;29.50;99.90
16198;DHT22;8206;51.440;6.914;2023-06-19T13:22:48;29.30;99.90
16198;DHT22;8206;51.440;6.914;2023-06-19T13:25:15;29.30;99.90
16198;DHT22;8206;51.440;6.914;2023-06-19T13:27:42;29.20;99.90
16198;DHT22;8206;51.440;6.914;2023-06-19T13:30:09;29.10;99.90
16198;DHT22;8206;51.440;6.914;2023-06-19T13:32:36;29.10;99.90
16198;DHT22;8206;51.440;6.914;2023-06-19T13:35:03;29.10;99.90
16198;DHT22;8206;51.440;6.914;2023-06-19T13:37:34;29.10;99.90
16198;DHT22;8206;51.440;6.914;2023-06-19T13:40:01;29.00;99.90
16198;DHT22;8206;51.440;6.914;2023-06-19T13:42:29;28.70;99.90
16198;DHT22;8206;51.440;6.914;2023-06-19T13:44:56;28.50;99.90
16198;DHT22;8206;51.440;6.914;2023-06-19T13:47:23;28.30;99.90
16198;DHT22;8206;51.440;6.914;2023-06-19T13:49:50;28.40;99.90
16198;DHT22;8206;51.440;6.914;2023-06-19T13:52:17;28.50;99.90
16198;DHT22;8206;51.440;6.914;2023-06-19T13:54:45;28.70;99.90
16198;DHT22;8206;51.440;6.914;2023-06-19T13:57:12;28.80;99.90
16198;DHT22;8206;51.440;6.914;2023-06-19T13:59:38;28.90;99.90
16198;DHT22;8206;51.440;6.914;2023-06-19T14:02:05;29.10;99.90
16198;DHT22;8206;51.440;6.914;2023-06-19T14:04:32;29.20;99.90
16198;DHT22;8206;51.440;6.914;2023-06-19T14:06:58;29.30;99.90
16198;DHT22;8206;51.440;6.914;2023-06-19T14:09:25;29.50;99.90
16198;DHT22;8206;51.440;6.914;2023-06-19T14:11:53;29.60;99.90
16198;DHT22;8206;51.440;6.914;2023-06-19T14:14:20;29.10;99.90
16198;DHT22;8206;51.440;6.914;2023-06-19T14:16:47;28.80;99.90
16198;DHT22;8206;51.440;6.914;2023-06-19T14:19:13;28.70;99.90
16198;DHT22;8206;51.440;6.914;2023-06-19T14:21:40;28.70;99.90
16198;DHT22;8206;51.440;6.914;2023-06-19T14:24:07;29.00;99.90
16198;DHT22;8206;51.440;6.914;2023-06-19T14:26:34;29.20;99.90
16198;DHT22;8206;51.440;6.914;2023-06-19T14:29:02;29.50;99.90
16198;DHT22;8206;51.440;6.914;2023-06-19T14:31:28;29.40;99.90
16198;DHT22;8206;51.440;6.914;2023-06-19T14:33:55;29.30;99.90
16198;DHT22;8206;51.440;6.914;2023-06-19T14:36:21;29.50;99.90
16198;DHT22;8206;51.440;6.914;2023-06-19T14:38:48;29.60;99.90
16198;DHT22;8206;51.440;6.914;2023-06-19T14:41:15;29.60;99.90
16198;DHT22;8206;51.440;6.914;2023-06-19T14:43:41;29.80;99.90
16198;DHT22;8206;51.440;6.914;2023-06-19T14:46:09;29.70;99.90
16198;DHT22;8206;51.440;6.914;2023-06-19T14:48:36;29.70;99.90
16198;DHT22;8206;51.440;6.914;2023-06-19T14:51:03;29.70;99.90
16198;DHT22;8206;51.440;6.914;2023-06-19T14:53:31;29.80;99.90
16198;DHT22;8206;51.440;6.914;2023-06-19T14:55:57;29.80;99.90
16198;DHT22;8206;51.440;6.914;2023-06-19T14:58:24;29.60;99.90
16198;DHT22;8206;51.440;6.914;2023-06-19T15:00:53;29.50;99.90
16198;DHT22;8206;51.440;6.914;2023-06-19T15:03:21;29.50;99.90
16198;DHT22;8206;51.440;6.914;2023-06-19T15:05:48;29.50;99.90
16198;DHT22;8206;51.440;6.914;2023-06-19T15:08:15;29.50;99.90
16198;DHT22;8206;51.440;6.914;2023-06-19T15:10:46;29.50;99.90
16198;DHT22;8206;51.440;6.914;2023-06-19T15:13:13;29.60;99.90
16198;DHT22;8206;51.440;6.914;2023-06-19T15:15:41;29.80;99.90
16198;DHT22;8206;51.440;6.914;2023-06-19T15:18:08;29.70;99.90
16198;DHT22;8206;51.440;6.914;2023-06-19T15:20:36;29.70;99.90
16198;DHT22;8206;51.440;6.914;2023-06-19T15:23:03;29.60;99.90
16198;DHT22;8206;51.440;6.914;2023-06-19T15:25:30;29.50;99.90
16198;DHT22;8206;51.440;6.914;2023-06-19T15:27:57;29.60;99.90
16198;DHT22;8206;51.440;6.914;2023-06-19T15:30:23;29.60;99.90
16198;DHT22;8206;51.440;6.914;2023-06-19T15:32:50;29.40;99.90
16198;DHT22;8206;51.440;6.914;2023-06-19T15:35:17;29.30;99.90
16198;DHT22;8206;51.440;6.914;2023-06-19T15:37:45;29.30;99.90
16198;DHT22;8206;51.440;6.914;2023-06-19T15:40:12;29.30;99.90
16198;DHT22;8206;51.440;6.914;2023-06-19T15:42:39;29.50;99.90
16198;DHT22;8206;51.440;6.914;2023-06-19T15:45:06;29.50;99.90
16198;DHT22;8206;51.440;6.914;2023-06-19T15:47:33;29.40;99.90